Main page
METAR-TAF:

METAR-TAF

Airports :

Odiham, England

RAF Odiham

latitude: 51-14N, longitude: 000-57W, elevation: 123 m

Current weather observation

The report was made 1 hour and 16 minutes ago, at 18:50 UTC
Wind 4 kt from the West/Southwest
Temperature 2°C
Humidity 100%
Pressure 1032 hPa
Visibility: 7000 m
mist

METAR: EGVO 181850Z AUTO 25004KT 7000 BR NCD 02/02 Q1032

Time: 20:06 (20:06 UTC)


TAF: missing

Weather observations and forecasts of more than 4000 airports (METAR and TAF reports).

The available stations are represented by yellow and red dots on the map.

Hover mouse over dot to see the name of the station.

Then click to see weather observations and forecasts.

To change the map : click on the green buttons with a black cross to zoom in, on the green button with a dash to zoom out, or on the green arrows for adjacent maps.


METAR-TAF: